sim
Sign-in with your pilot id or email,
or register
Callsign
Passwort

Schedule Details

Flight Number: DLH2262 (1)
Departure: Munich Airport (EDDM) at 10:05
Arrival: Marseille Provence Airport (LFML) at 11:45
Route: Lufthansa Passenger Schedule. Enter filed route here before submitting Pirep.

Weather Information
Getting current METAR information for EDDM 010050Z VRB02KT 1500 0500NE R08L/0600D R08R/0600N BCFG NSC 05/04 Q1011 BECMG 0600 FG
Getting current METAR information for LFML 010030Z AUTO 12004KT CAVOK 13/10 Q1012 NOSIG

Schedule Frequency

Route Map